KBRL/BRL METAR and TAF weather

Enter ICAO airport designator
Station Type Date Time Source
KBRL METAR 2021/04/17 02:53 UTC NOAA

KBRL 170253Z AUTO 32005KT 10SM BKN110 11/04 A2996 RMK AO2 SLP145 T01110044 53001


Station Type Date Time Source
KBRL Decoded METAR 2021/04/17 02:53 UTC NOAA

BURLINGTON REGIONAL AIRPORT, IA, United States (KBRL) 40-46N 91-08W 211M
Apr 16, 2021 - 10:53 PM EDT / 2021.04.17 0253 UTC
Wind: from the NW (320 degrees) at 6 MPH (5 KT):0
Visibility: 10 mile(s):0
Sky conditions: mostly cloudy
Temperature: 52.0 F (11.1 C)
Dew Point: 39.9 F (4.4 C)
Relative Humidity: 63%
Pressure (altimeter): 29.96 in. Hg (1014 hPa)
Pressure tendency: 0.00 inches (0.1 hPa) higher than three hours ago
ob: KBRL 170253Z AUTO 32005KT 10SM BKN110 11/04 A2996 RMK AO2 SLP145 T01110044 53001
cycle: 3

Station Type Date Time Source
KBRL TAF 2021/04/16 18:28 UTC NOAA

TAF KBRL 161725Z 1618/1718 VRB03KT P6SM SCT040
FM170400 35004KT P6SM BKN040 OVC100
FM170700 36003KT P6SM VCSH OVC030
FM171200 06004KT P6SM OVC040

Example: see airport list